sensor_id;sensor_type;location;lat;lon;timestamp;temperature;humidity
11838;DHT22;5978;51.020;6.764;2024-01-30T00:02:17;7.50;99.90
11838;DHT22;5978;51.020;6.764;2024-01-30T00:04:43;7.50;99.90
11838;DHT22;5978;51.020;6.764;2024-01-30T00:07:09;7.40;99.90
11838;DHT22;5978;51.020;6.764;2024-01-30T00:09:38;7.40;99.90
11838;DHT22;5978;51.020;6.764;2024-01-30T00:12:05;7.40;99.90
11838;DHT22;5978;51.020;6.764;2024-01-30T00:14:34;7.40;99.90
11838;DHT22;5978;51.020;6.764;2024-01-30T00:17:00;7.30;99.90
11838;DHT22;5978;51.020;6.764;2024-01-30T00:19:26;7.30;99.90
11838;DHT22;5978;51.020;6.764;2024-01-30T00:21:55;7.30;99.90
11838;DHT22;5978;51.020;6.764;2024-01-30T00:24:21;7.30;99.90
11838;DHT22;5978;51.020;6.764;2024-01-30T00:26:46;7.30;99.90
11838;DHT22;5978;51.020;6.764;2024-01-30T00:29:12;7.30;99.90
11838;DHT22;5978;51.020;6.764;2024-01-30T00:31:44;7.20;99.90
11838;DHT22;5978;51.020;6.764;2024-01-30T00:34:10;7.20;99.90
11838;DHT22;5978;51.020;6.764;2024-01-30T00:36:36;7.10;99.90
11838;DHT22;5978;51.020;6.764;2024-01-30T00:39:02;7.10;99.90
11838;DHT22;5978;51.020;6.764;2024-01-30T00:41:31;7.10;99.90
11838;DHT22;5978;51.020;6.764;2024-01-30T00:43:57;7.10;99.90
11838;DHT22;5978;51.020;6.764;2024-01-30T00:46:23;7.10;99.90
11838;DHT22;5978;51.020;6.764;2024-01-30T00:48:49;7.00;99.90
11838;DHT22;5978;51.020;6.764;2024-01-30T00:51:15;7.00;99.90
11838;DHT22;5978;51.020;6.764;2024-01-30T00:53:40;6.90;99.90
11838;DHT22;5978;51.020;6.764;2024-01-30T00:56:07;7.00;99.90
11838;DHT22;5978;51.020;6.764;2024-01-30T00:58:33;7.00;99.90
11838;DHT22;5978;51.020;6.764;2024-01-30T01:00:59;7.00;99.90
11838;DHT22;5978;51.020;6.764;2024-01-30T01:03:24;7.00;99.90
11838;DHT22;5978;51.020;6.764;2024-01-30T01:05:50;7.00;99.90
11838;DHT22;5978;51.020;6.764;2024-01-30T01:08:16;6.90;99.90
11838;DHT22;5978;51.020;6.764;2024-01-30T01:10:42;6.90;99.90
11838;DHT22;5978;51.020;6.764;2024-01-30T01:13:08;6.90;99.90
11838;DHT22;5978;51.020;6.764;2024-01-30T01:15:35;6.80;99.90
11838;DHT22;5978;51.020;6.764;2024-01-30T01:18:00;6.90;99.90
11838;DHT22;5978;51.020;6.764;2024-01-30T01:20:26;6.90;99.90
11838;DHT22;5978;51.020;6.764;2024-01-30T01:22:55;6.90;99.90
11838;DHT22;5978;51.020;6.764;2024-01-30T01:25:20;6.90;99.90
11838;DHT22;5978;51.020;6.764;2024-01-30T01:27:47;6.80;99.90
11838;DHT22;5978;51.020;6.764;2024-01-30T01:30:17;6.80;99.90
11838;DHT22;5978;51.020;6.764;2024-01-30T01:32:49;6.80;99.90
11838;DHT22;5978;51.020;6.764;2024-01-30T01:35:25;6.90;99.90
11838;DHT22;5978;51.020;6.764;2024-01-30T01:37:51;6.90;99.90
11838;DHT22;5978;51.020;6.764;2024-01-30T01:40:23;6.90;99.90
11838;DHT22;5978;51.020;6.764;2024-01-30T01:42:50;6.90;99.90
11838;DHT22;5978;51.020;6.764;2024-01-30T01:45:17;6.80;99.90
11838;DHT22;5978;51.020;6.764;2024-01-30T01:47:44;6.90;99.90
11838;DHT22;5978;51.020;6.764;2024-01-30T01:50:13;6.90;99.90
11838;DHT22;5978;51.020;6.764;2024-01-30T01:52:40;6.90;99.90
11838;DHT22;5978;51.020;6.764;2024-01-30T01:55:07;6.90;99.90
11838;DHT22;5978;51.020;6.764;2024-01-30T01:57:34;6.80;99.90
11838;DHT22;5978;51.020;6.764;2024-01-30T02:00:01;6.80;99.90
11838;DHT22;5978;51.020;6.764;2024-01-30T02:02:30;6.70;99.90
11838;DHT22;5978;51.020;6.764;2024-01-30T02:04:57;6.70;99.90
11838;DHT22;5978;51.020;6.764;2024-01-30T02:07:24;6.70;99.90
11838;DHT22;5978;51.020;6.764;2024-01-30T02:09:50;6.70;99.90
11838;DHT22;5978;51.020;6.764;2024-01-30T02:12:16;6.70;99.90
11838;DHT22;5978;51.020;6.764;2024-01-30T02:14:46;6.70;99.90
11838;DHT22;5978;51.020;6.764;2024-01-30T02:17:12;6.70;99.90
11838;DHT22;5978;51.020;6.764;2024-01-30T02:19:39;6.70;99.90
11838;DHT22;5978;51.020;6.764;2024-01-30T02:22:05;6.80;99.90
11838;DHT22;5978;51.020;6.764;2024-01-30T02:24:31;6.80;99.90
11838;DHT22;5978;51.020;6.764;2024-01-30T02:26:57;6.80;99.90
11838;DHT22;5978;51.020;6.764;2024-01-30T02:29:22;6.80;99.90
11838;DHT22;5978;51.020;6.764;2024-01-30T02:31:48;6.80;99.90
11838;DHT22;5978;51.020;6.764;2024-01-30T02:34:14;6.90;99.90
11838;DHT22;5978;51.020;6.764;2024-01-30T02:36:43;6.80;99.90
11838;DHT22;5978;51.020;6.764;2024-01-30T02:39:09;6.80;99.90
11838;DHT22;5978;51.020;6.764;2024-01-30T02:41:35;6.80;99.90
11838;DHT22;5978;51.020;6.764;2024-01-30T02:44:02;6.80;99.90
11838;DHT22;5978;51.020;6.764;2024-01-30T02:46:28;6.80;99.90
11838;DHT22;5978;51.020;6.764;2024-01-30T02:48:53;6.70;99.90
11838;DHT22;5978;51.020;6.764;2024-01-30T02:51:19;6.70;99.90
11838;DHT22;5978;51.020;6.764;2024-01-30T02:53:45;6.80;99.90
11838;DHT22;5978;51.020;6.764;2024-01-30T02:56:11;6.70;99.90
11838;DHT22;5978;51.020;6.764;2024-01-30T02:58:39;6.70;99.90
11838;DHT22;5978;51.020;6.764;2024-01-30T03:01:06;6.70;99.90
11838;DHT22;5978;51.020;6.764;2024-01-30T03:03:32;6.80;99.90
11838;DHT22;5978;51.020;6.764;2024-01-30T03:06:00;6.70;99.90
11838;DHT22;5978;51.020;6.764;2024-01-30T03:08:26;6.70;99.90
11838;DHT22;5978;51.020;6.764;2024-01-30T03:10:52;6.70;99.90
11838;DHT22;5978;51.020;6.764;2024-01-30T03:13:18;6.70;99.90
11838;DHT22;5978;51.020;6.764;2024-01-30T03:15:43;6.70;99.90
11838;DHT22;5978;51.020;6.764;2024-01-30T03:18:12;6.70;99.90
11838;DHT22;5978;51.020;6.764;2024-01-30T03:20:38;6.80;99.90
11838;DHT22;5978;51.020;6.764;2024-01-30T03:23:04;6.70;99.90
11838;DHT22;5978;51.020;6.764;2024-01-30T03:25:30;6.70;99.90
11838;DHT22;5978;51.020;6.764;2024-01-30T03:27:56;6.70;99.90
11838;DHT22;5978;51.020;6.764;2024-01-30T03:30:22;6.70;99.90
11838;DHT22;5978;51.020;6.764;2024-01-30T03:32:47;6.70;99.90
11838;DHT22;5978;51.020;6.764;2024-01-30T03:35:13;6.70;99.90
11838;DHT22;5978;51.020;6.764;2024-01-30T03:37:39;6.70;99.90
11838;DHT22;5978;51.020;6.764;2024-01-30T03:40:05;6.70;99.90
11838;DHT22;5978;51.020;6.764;2024-01-30T03:42:31;6.70;99.90
11838;DHT22;5978;51.020;6.764;2024-01-30T03:44:57;6.70;99.90
11838;DHT22;5978;51.020;6.764;2024-01-30T03:47:23;6.80;99.90
11838;DHT22;5978;51.020;6.764;2024-01-30T03:49:49;6.80;99.90
11838;DHT22;5978;51.020;6.764;2024-01-30T03:52:15;6.70;99.90
11838;DHT22;5978;51.020;6.764;2024-01-30T03:54:41;6.70;99.90
11838;DHT22;5978;51.020;6.764;2024-01-30T03:57:06;6.80;99.90
11838;DHT22;5978;51.020;6.764;2024-01-30T03:59:32;6.80;99.90
11838;DHT22;5978;51.020;6.764;2024-01-30T04:01:59;6.80;99.90
11838;DHT22;5978;51.020;6.764;2024-01-30T04:04:25;6.70;99.90
11838;DHT22;5978;51.020;6.764;2024-01-30T04:06:51;6.70;99.90
11838;DHT22;5978;51.020;6.764;2024-01-30T04:09:19;6.70;99.90
11838;DHT22;5978;51.020;6.764;2024-01-30T04:11:45;6.70;99.90
11838;DHT22;5978;51.020;6.764;2024-01-30T04:14:13;6.70;99.90
11838;DHT22;5978;51.020;6.764;2024-01-30T04:16:39;6.60;99.90
11838;DHT22;5978;51.020;6.764;2024-01-30T04:19:05;6.60;99.90
11838;DHT22;5978;51.020;6.764;2024-01-30T04:21:30;6.60;99.90
11838;DHT22;5978;51.020;6.764;2024-01-30T04:23:56;6.50;99.90
11838;DHT22;5978;51.020;6.764;2024-01-30T04:26:22;6.50;99.90
11838;DHT22;5978;51.020;6.764;2024-01-30T04:28:49;6.40;99.90
11838;DHT22;5978;51.020;6.764;2024-01-30T04:31:14;6.40;99.90
11838;DHT22;5978;51.020;6.764;2024-01-30T04:33:40;6.50;99.90
11838;DHT22;5978;51.020;6.764;2024-01-30T04:36:08;6.50;99.90
11838;DHT22;5978;51.020;6.764;2024-01-30T04:38:38;6.40;99.90
11838;DHT22;5978;51.020;6.764;2024-01-30T04:41:05;6.40;99.90
11838;DHT22;5978;51.020;6.764;2024-01-30T04:43:31;6.40;99.90
11838;DHT22;5978;51.020;6.764;2024-01-30T04:45:57;6.40;99.90
11838;DHT22;5978;51.020;6.764;2024-01-30T04:48:23;6.40;99.90
11838;DHT22;5978;51.020;6.764;2024-01-30T04:50:48;6.30;99.90
11838;DHT22;5978;51.020;6.764;2024-01-30T04:53:14;6.30;99.90
11838;DHT22;5978;51.020;6.764;2024-01-30T04:55:40;6.30;99.90
11838;DHT22;5978;51.020;6.764;2024-01-30T04:58:06;6.30;99.90
11838;DHT22;5978;51.020;6.764;2024-01-30T05:00:31;6.30;99.90
11838;DHT22;5978;51.020;6.764;2024-01-30T05:02:57;6.30;99.90
11838;DHT22;5978;51.020;6.764;2024-01-30T05:05:23;6.30;99.90
11838;DHT22;5978;51.020;6.764;2024-01-30T05:07:49;6.40;99.90
11838;DHT22;5978;51.020;6.764;2024-01-30T05:10:15;6.40;99.90
11838;DHT22;5978;51.020;6.764;2024-01-30T05:12:41;6.40;99.90
11838;DHT22;5978;51.020;6.764;2024-01-30T05:15:07;6.40;99.90
11838;DHT22;5978;51.020;6.764;2024-01-30T05:17:33;6.40;99.90
11838;DHT22;5978;51.020;6.764;2024-01-30T05:19:59;6.50;99.90
11838;DHT22;5978;51.020;6.764;2024-01-30T05:22:24;6.50;99.90
11838;DHT22;5978;51.020;6.764;2024-01-30T05:24:50;6.50;99.90
11838;DHT22;5978;51.020;6.764;2024-01-30T05:27:16;6.60;99.90
11838;DHT22;5978;51.020;6.764;2024-01-30T05:29:42;6.50;99.90
11838;DHT22;5978;51.020;6.764;2024-01-30T05:32:11;6.50;99.90
11838;DHT22;5978;51.020;6.764;2024-01-30T05:34:37;6.50;99.90
11838;DHT22;5978;51.020;6.764;2024-01-30T05:37:03;6.50;99.90
11838;DHT22;5978;51.020;6.764;2024-01-30T05:39:30;6.50;99.90
11838;DHT22;5978;51.020;6.764;2024-01-30T05:41:58;6.50;99.90
11838;DHT22;5978;51.020;6.764;2024-01-30T05:44:24;6.50;99.90
11838;DHT22;5978;51.020;6.764;2024-01-30T05:46:50;6.40;99.90
11838;DHT22;5978;51.020;6.764;2024-01-30T05:49:16;6.40;99.90
11838;DHT22;5978;51.020;6.764;2024-01-30T05:51:42;6.40;99.90
11838;DHT22;5978;51.020;6.764;2024-01-30T05:54:07;6.40;99.90
11838;DHT22;5978;51.020;6.764;2024-01-30T05:56:33;6.40;99.90
11838;DHT22;5978;51.020;6.764;2024-01-30T05:58:59;6.40;99.90
11838;DHT22;5978;51.020;6.764;2024-01-30T06:01:25;6.30;99.90
11838;DHT22;5978;51.020;6.764;2024-01-30T06:03:51;6.30;99.90
11838;DHT22;5978;51.020;6.764;2024-01-30T06:06:17;6.30;99.90
11838;DHT22;5978;51.020;6.764;2024-01-30T06:08:43;6.20;99.90
11838;DHT22;5978;51.020;6.764;2024-01-30T06:11:12;6.20;99.90
11838;DHT22;5978;51.020;6.764;2024-01-30T06:13:38;6.20;99.90
11838;DHT22;5978;51.020;6.764;2024-01-30T06:16:04;6.20;99.90
11838;DHT22;5978;51.020;6.764;2024-01-30T06:18:31;6.20;99.90
11838;DHT22;5978;51.020;6.764;2024-01-30T06:21:00;6.20;99.90
11838;DHT22;5978;51.020;6.764;2024-01-30T06:23:26;6.20;99.90
11838;DHT22;5978;51.020;6.764;2024-01-30T06:25:52;6.30;99.90
11838;DHT22;5978;51.020;6.764;2024-01-30T06:28:18;6.40;99.90
11838;DHT22;5978;51.020;6.764;2024-01-30T06:30:47;6.40;99.90
11838;DHT22;5978;51.020;6.764;2024-01-30T06:33:13;6.40;99.90
11838;DHT22;5978;51.020;6.764;2024-01-30T06:35:40;6.40;99.90
11838;DHT22;5978;51.020;6.764;2024-01-30T06:38:06;6.40;99.90
11838;DHT22;5978;51.020;6.764;2024-01-30T06:40:34;6.50;99.90
11838;DHT22;5978;51.020;6.764;2024-01-30T06:43:04;6.50;99.90
11838;DHT22;5978;51.020;6.764;2024-01-30T06:45:30;6.60;99.90
11838;DHT22;5978;51.020;6.764;2024-01-30T06:47:56;6.60;99.90
11838;DHT22;5978;51.020;6.764;2024-01-30T06:50:22;6.70;99.90
11838;DHT22;5978;51.020;6.764;2024-01-30T06:52:48;6.70;99.90
11838;DHT22;5978;51.020;6.764;2024-01-30T06:55:14;6.70;99.90
11838;DHT22;5978;51.020;6.764;2024-01-30T06:57:40;6.80;99.90
11838;DHT22;5978;51.020;6.764;2024-01-30T07:00:06;6.80;99.90
11838;DHT22;5978;51.020;6.764;2024-01-30T07:02:32;6.80;99.90
11838;DHT22;5978;51.020;6.764;2024-01-30T07:04:58;6.80;99.90
11838;DHT22;5978;51.020;6.764;2024-01-30T07:07:24;6.80;99.90
11838;DHT22;5978;51.020;6.764;2024-01-30T07:09:50;6.80;99.90
11838;DHT22;5978;51.020;6.764;2024-01-30T07:12:21;6.80;99.90
11838;DHT22;5978;51.020;6.764;2024-01-30T07:14:47;6.80;99.90
11838;DHT22;5978;51.020;6.764;2024-01-30T07:17:15;6.80;99.90
11838;DHT22;5978;51.020;6.764;2024-01-30T07:19:41;6.80;99.90
11838;DHT22;5978;51.020;6.764;2024-01-30T07:22:07;6.80;99.90
11838;DHT22;5978;51.020;6.764;2024-01-30T07:24:33;6.80;99.90
11838;DHT22;5978;51.020;6.764;2024-01-30T07:26:59;6.90;99.90
11838;DHT22;5978;51.020;6.764;2024-01-30T07:29:25;6.90;99.90
11838;DHT22;5978;51.020;6.764;2024-01-30T07:31:51;6.90;99.90
11838;DHT22;5978;51.020;6.764;2024-01-30T07:34:17;7.00;99.90
11838;DHT22;5978;51.020;6.764;2024-01-30T07:36:43;7.00;99.90
11838;DHT22;5978;51.020;6.764;2024-01-30T07:39:09;7.00;99.90
11838;DHT22;5978;51.020;6.764;2024-01-30T07:41:35;7.00;99.90
11838;DHT22;5978;51.020;6.764;2024-01-30T07:44:02;7.10;99.90
11838;DHT22;5978;51.020;6.764;2024-01-30T07:46:28;7.20;99.90
11838;DHT22;5978;51.020;6.764;2024-01-30T07:48:54;7.20;99.90
11838;DHT22;5978;51.020;6.764;2024-01-30T07:51:21;7.20;99.90
11838;DHT22;5978;51.020;6.764;2024-01-30T07:53:47;7.20;99.90
11838;DHT22;5978;51.020;6.764;2024-01-30T07:56:12;7.30;99.90
11838;DHT22;5978;51.020;6.764;2024-01-30T07:58:39;7.30;99.90
11838;DHT22;5978;51.020;6.764;2024-01-30T08:01:04;7.30;99.90
11838;DHT22;5978;51.020;6.764;2024-01-30T08:03:30;7.30;99.90
11838;DHT22;5978;51.020;6.764;2024-01-30T08:05:56;7.20;99.90
11838;DHT22;5978;51.020;6.764;2024-01-30T08:08:22;7.30;99.90
11838;DHT22;5978;51.020;6.764;2024-01-30T08:10:47;7.30;99.90
11838;DHT22;5978;51.020;6.764;2024-01-30T08:13:14;7.30;99.90
11838;DHT22;5978;51.020;6.764;2024-01-30T08:15:40;7.30;99.90
11838;DHT22;5978;51.020;6.764;2024-01-30T08:18:06;7.30;99.90
11838;DHT22;5978;51.020;6.764;2024-01-30T08:20:32;7.30;99.90
11838;DHT22;5978;51.020;6.764;2024-01-30T08:22:58;7.30;99.90
11838;DHT22;5978;51.020;6.764;2024-01-30T08:25:25;7.30;99.90
11838;DHT22;5978;51.020;6.764;2024-01-30T08:27:51;7.30;99.90
11838;DHT22;5978;51.020;6.764;2024-01-30T08:30:17;7.40;99.90
11838;DHT22;5978;51.020;6.764;2024-01-30T08:32:43;7.40;99.90
11838;DHT22;5978;51.020;6.764;2024-01-30T08:35:12;7.40;99.90
11838;DHT22;5978;51.020;6.764;2024-01-30T08:37:40;7.50;99.90
11838;DHT22;5978;51.020;6.764;2024-01-30T08:40:07;7.60;99.90
11838;DHT22;5978;51.020;6.764;2024-01-30T08:42:34;7.70;99.90
11838;DHT22;5978;51.020;6.764;2024-01-30T08:44:59;7.80;99.90
11838;DHT22;5978;51.020;6.764;2024-01-30T08:47:25;7.80;99.90
11838;DHT22;5978;51.020;6.764;2024-01-30T08:49:51;7.90;99.90
11838;DHT22;5978;51.020;6.764;2024-01-30T08:52:17;8.00;99.90
11838;DHT22;5978;51.020;6.764;2024-01-30T08:54:43;8.00;99.90
11838;DHT22;5978;51.020;6.764;2024-01-30T08:57:09;8.20;99.90
11838;DHT22;5978;51.020;6.764;2024-01-30T08:59:34;8.30;99.90
11838;DHT22;5978;51.020;6.764;2024-01-30T09:02:00;8.40;99.90
11838;DHT22;5978;51.020;6.764;2024-01-30T09:04:26;8.60;99.90
11838;DHT22;5978;51.020;6.764;2024-01-30T09:06:52;8.80;99.90
11838;DHT22;5978;51.020;6.764;2024-01-30T09:09:17;8.90;99.90
11838;DHT22;5978;51.020;6.764;2024-01-30T09:11:44;9.10;99.90
11838;DHT22;5978;51.020;6.764;2024-01-30T09:14:12;9.20;99.90
11838;DHT22;5978;51.020;6.764;2024-01-30T09:16:38;9.20;99.90
11838;DHT22;5978;51.020;6.764;2024-01-30T09:19:04;9.20;99.90
11838;DHT22;5978;51.020;6.764;2024-01-30T09:21:30;9.30;99.90
11838;DHT22;5978;51.020;6.764;2024-01-30T09:24:02;9.30;99.90
11838;DHT22;5978;51.020;6.764;2024-01-30T09:26:29;9.30;99.90
11838;DHT22;5978;51.020;6.764;2024-01-30T09:28:55;9.30;99.90
11838;DHT22;5978;51.020;6.764;2024-01-30T09:31:20;9.20;99.90
11838;DHT22;5978;51.020;6.764;2024-01-30T09:33:46;9.20;99.90
11838;DHT22;5978;51.020;6.764;2024-01-30T09:36:13;9.30;99.90
11838;DHT22;5978;51.020;6.764;2024-01-30T09:38:41;9.50;99.90
11838;DHT22;5978;51.020;6.764;2024-01-30T09:41:10;9.50;99.90
11838;DHT22;5978;51.020;6.764;2024-01-30T09:43:38;9.40;99.90
11838;DHT22;5978;51.020;6.764;2024-01-30T09:46:05;9.40;99.90
11838;DHT22;5978;51.020;6.764;2024-01-30T09:48:33;9.40;99.90
11838;DHT22;5978;51.020;6.764;2024-01-30T09:51:00;9.40;99.90
11838;DHT22;5978;51.020;6.764;2024-01-30T09:53:26;9.30;99.90
11838;DHT22;5978;51.020;6.764;2024-01-30T09:55:52;9.20;99.90
11838;DHT22;5978;51.020;6.764;2024-01-30T09:58:17;9.30;99.90
11838;DHT22;5978;51.020;6.764;2024-01-30T10:00:43;9.20;99.90
11838;DHT22;5978;51.020;6.764;2024-01-30T10:03:09;9.20;99.90
11838;DHT22;5978;51.020;6.764;2024-01-30T10:05:36;9.20;99.90
11838;DHT22;5978;51.020;6.764;2024-01-30T10:08:07;9.30;99.90
11838;DHT22;5978;51.020;6.764;2024-01-30T10:10:34;9.30;99.90
11838;DHT22;5978;51.020;6.764;2024-01-30T10:13:01;9.40;99.90
11838;DHT22;5978;51.020;6.764;2024-01-30T10:15:28;9.40;99.90
11838;DHT22;5978;51.020;6.764;2024-01-30T10:17:53;9.50;99.90
11838;DHT22;5978;51.020;6.764;2024-01-30T10:20:19;9.50;99.90
11838;DHT22;5978;51.020;6.764;2024-01-30T10:22:48;9.50;99.90
11838;DHT22;5978;51.020;6.764;2024-01-30T10:25:15;9.50;99.90
11838;DHT22;5978;51.020;6.764;2024-01-30T10:27:41;9.60;99.90
11838;DHT22;5978;51.020;6.764;2024-01-30T10:30:07;9.60;99.90
11838;DHT22;5978;51.020;6.764;2024-01-30T10:32:33;9.60;99.90
11838;DHT22;5978;51.020;6.764;2024-01-30T10:34:59;9.70;99.90
11838;DHT22;5978;51.020;6.764;2024-01-30T10:37:25;9.70;99.90
11838;DHT22;5978;51.020;6.764;2024-01-30T10:39:53;9.70;99.90
11838;DHT22;5978;51.020;6.764;2024-01-30T10:42:26;9.80;99.90
11838;DHT22;5978;51.020;6.764;2024-01-30T10:45:14;9.80;99.90
11838;DHT22;5978;51.020;6.764;2024-01-30T10:47:48;9.80;99.90
11838;DHT22;5978;51.020;6.764;2024-01-30T10:50:14;10.00;99.90
11838;DHT22;5978;51.020;6.764;2024-01-30T10:52:41;10.10;99.90
11838;DHT22;5978;51.020;6.764;2024-01-30T10:55:08;10.30;99.90
11838;DHT22;5978;51.020;6.764;2024-01-30T10:57:37;10.40;99.90
11838;DHT22;5978;51.020;6.764;2024-01-30T11:00:11;10.50;99.90
11838;DHT22;5978;51.020;6.764;2024-01-30T11:02:43;10.50;99.90
11838;DHT22;5978;51.020;6.764;2024-01-30T11:05:10;10.60;99.90
11838;DHT22;5978;51.020;6.764;2024-01-30T11:07:39;10.60;99.90
11838;DHT22;5978;51.020;6.764;2024-01-30T11:10:06;10.60;99.90
11838;DHT22;5978;51.020;6.764;2024-01-30T11:12:38;10.70;99.90
11838;DHT22;5978;51.020;6.764;2024-01-30T11:15:16;10.70;99.90
11838;DHT22;5978;51.020;6.764;2024-01-30T11:17:43;10.80;99.90
11838;DHT22;5978;51.020;6.764;2024-01-30T11:20:16;10.90;99.90
11838;DHT22;5978;51.020;6.764;2024-01-30T11:22:45;11.00;99.90
11838;DHT22;5978;51.020;6.764;2024-01-30T11:25:15;11.00;99.90
11838;DHT22;5978;51.020;6.764;2024-01-30T11:27:45;11.10;99.90
11838;DHT22;5978;51.020;6.764;2024-01-30T11:30:24;11.10;99.90
11838;DHT22;5978;51.020;6.764;2024-01-30T11:33:06;11.30;99.90
11838;DHT22;5978;51.020;6.764;2024-01-30T11:35:34;11.30;99.90
11838;DHT22;5978;51.020;6.764;2024-01-30T11:38:00;11.30;99.90
11838;DHT22;5978;51.020;6.764;2024-01-30T11:40:30;11.40;99.90
11838;DHT22;5978;51.020;6.764;2024-01-30T11:42:57;11.70;99.90
11838;DHT22;5978;51.020;6.764;2024-01-30T11:45:23;11.70;99.90
11838;DHT22;5978;51.020;6.764;2024-01-30T11:47:49;11.80;99.90
11838;DHT22;5978;51.020;6.764;2024-01-30T11:50:15;11.90;99.90
11838;DHT22;5978;51.020;6.764;2024-01-30T11:52:42;12.00;99.90
11838;DHT22;5978;51.020;6.764;2024-01-30T11:55:09;12.00;99.90
11838;DHT22;5978;51.020;6.764;2024-01-30T11:57:35;12.10;99.90
11838;DHT22;5978;51.020;6.764;2024-01-30T12:00:03;12.10;99.90
11838;DHT22;5978;51.020;6.764;2024-01-30T12:02:36;12.10;99.90
11838;DHT22;5978;51.020;6.764;2024-01-30T12:05:05;12.10;99.90
11838;DHT22;5978;51.020;6.764;2024-01-30T12:07:32;12.00;99.90
11838;DHT22;5978;51.020;6.764;2024-01-30T12:09:58;12.00;99.90
11838;DHT22;5978;51.020;6.764;2024-01-30T12:12:26;12.10;99.90
11838;DHT22;5978;51.020;6.764;2024-01-30T12:14:52;12.20;99.90
11838;DHT22;5978;51.020;6.764;2024-01-30T12:17:29;12.30;99.90
11838;DHT22;5978;51.020;6.764;2024-01-30T12:20:11;12.40;99.90
11838;DHT22;5978;51.020;6.764;2024-01-30T12:25:11;12.50;99.90
11838;DHT22;5978;51.020;6.764;2024-01-30T12:27:37;12.60;99.90
11838;DHT22;5978;51.020;6.764;2024-01-30T12:30:07;12.60;99.90
11838;DHT22;5978;51.020;6.764;2024-01-30T12:32:42;12.50;99.90
11838;DHT22;5978;51.020;6.764;2024-01-30T12:35:16;12.50;99.90
11838;DHT22;5978;51.020;6.764;2024-01-30T12:37:45;12.50;99.90
11838;DHT22;5978;51.020;6.764;2024-01-30T12:40:12;12.50;99.90
11838;DHT22;5978;51.020;6.764;2024-01-30T12:42:42;12.50;99.90
11838;DHT22;5978;51.020;6.764;2024-01-30T12:45:08;12.40;99.90
11838;DHT22;5978;51.020;6.764;2024-01-30T12:47:35;12.50;99.90
11838;DHT22;5978;51.020;6.764;2024-01-30T12:50:01;12.40;99.90
11838;DHT22;5978;51.020;6.764;2024-01-30T12:52:27;12.40;99.90
11838;DHT22;5978;51.020;6.764;2024-01-30T12:54:52;12.50;99.90
11838;DHT22;5978;51.020;6.764;2024-01-30T12:57:18;12.60;99.90
11838;DHT22;5978;51.020;6.764;2024-01-30T12:59:45;12.60;99.90
11838;DHT22;5978;51.020;6.764;2024-01-30T13:02:12;12.60;99.90
11838;DHT22;5978;51.020;6.764;2024-01-30T13:04:39;12.60;99.90
11838;DHT22;5978;51.020;6.764;2024-01-30T13:07:05;12.50;99.90
11838;DHT22;5978;51.020;6.764;2024-01-30T13:09:31;12.60;99.90
11838;DHT22;5978;51.020;6.764;2024-01-30T13:11:58;12.60;99.90
11838;DHT22;5978;51.020;6.764;2024-01-30T13:14:25;12.60;99.90
11838;DHT22;5978;51.020;6.764;2024-01-30T13:16:51;12.60;99.90
11838;DHT22;5978;51.020;6.764;2024-01-30T13:19:18;12.60;99.90
11838;DHT22;5978;51.020;6.764;2024-01-30T13:21:43;12.60;99.90
11838;DHT22;5978;51.020;6.764;2024-01-30T13:24:11;12.60;99.90
11838;DHT22;5978;51.020;6.764;2024-01-30T13:26:37;12.60;99.90
11838;DHT22;5978;51.020;6.764;2024-01-30T13:29:06;12.60;99.90
11838;DHT22;5978;51.020;6.764;2024-01-30T13:31:32;12.50;99.90
11838;DHT22;5978;51.020;6.764;2024-01-30T13:33:58;12.50;99.90
11838;DHT22;5978;51.020;6.764;2024-01-30T13:36:24;12.50;99.90
11838;DHT22;5978;51.020;6.764;2024-01-30T13:38:53;12.50;99.90
11838;DHT22;5978;51.020;6.764;2024-01-30T13:41:19;12.40;99.90
11838;DHT22;5978;51.020;6.764;2024-01-30T13:43:46;12.40;99.90
11838;DHT22;5978;51.020;6.764;2024-01-30T13:46:12;12.30;99.90
11838;DHT22;5978;51.020;6.764;2024-01-30T13:48:37;12.40;99.90
11838;DHT22;5978;51.020;6.764;2024-01-30T13:51:03;12.30;99.90
11838;DHT22;5978;51.020;6.764;2024-01-30T13:53:29;12.30;99.90
11838;DHT22;5978;51.020;6.764;2024-01-30T13:55:55;12.30;99.90
11838;DHT22;5978;51.020;6.764;2024-01-30T13:58:20;12.30;99.90
11838;DHT22;5978;51.020;6.764;2024-01-30T14:00:46;12.20;99.90
11838;DHT22;5978;51.020;6.764;2024-01-30T14:03:11;12.20;99.90
11838;DHT22;5978;51.020;6.764;2024-01-30T14:05:37;12.20;99.90
11838;DHT22;5978;51.020;6.764;2024-01-30T14:08:03;12.30;99.90
11838;DHT22;5978;51.020;6.764;2024-01-30T14:10:28;12.30;99.90
11838;DHT22;5978;51.020;6.764;2024-01-30T14:12:54;12.30;99.90
11838;DHT22;5978;51.020;6.764;2024-01-30T14:15:20;12.30;99.90
11838;DHT22;5978;51.020;6.764;2024-01-30T14:17:45;12.30;99.90
11838;DHT22;5978;51.020;6.764;2024-01-30T14:20:15;12.30;99.90
11838;DHT22;5978;51.020;6.764;2024-01-30T14:22:43;12.30;99.90
11838;DHT22;5978;51.020;6.764;2024-01-30T14:25:09;12.30;99.90
11838;DHT22;5978;51.020;6.764;2024-01-30T14:27:36;12.30;99.90
11838;DHT22;5978;51.020;6.764;2024-01-30T14:30:02;12.30;99.90
11838;DHT22;5978;51.020;6.764;2024-01-30T14:32:28;12.30;99.90
11838;DHT22;5978;51.020;6.764;2024-01-30T14:34:54;12.30;99.90
11838;DHT22;5978;51.020;6.764;2024-01-30T14:37:20;12.40;99.90
11838;DHT22;5978;51.020;6.764;2024-01-30T14:39:47;12.40;99.90
11838;DHT22;5978;51.020;6.764;2024-01-30T14:42:13;12.40;99.90
11838;DHT22;5978;51.020;6.764;2024-01-30T14:44:39;12.30;99.90
11838;DHT22;5978;51.020;6.764;2024-01-30T14:47:05;12.30;99.90
11838;DHT22;5978;51.020;6.764;2024-01-30T14:49:31;12.30;99.90
11838;DHT22;5978;51.020;6.764;2024-01-30T14:51:57;12.30;99.90
11838;DHT22;5978;51.020;6.764;2024-01-30T14:54:24;12.30;99.90
11838;DHT22;5978;51.020;6.764;2024-01-30T14:56:50;12.30;99.90
11838;DHT22;5978;51.020;6.764;2024-01-30T14:59:16;12.30;99.90
11838;DHT22;5978;51.020;6.764;2024-01-30T15:01:42;12.30;99.90
11838;DHT22;5978;51.020;6.764;2024-01-30T15:04:08;12.20;99.90
11838;DHT22;5978;51.020;6.764;2024-01-30T15:06:34;12.20;99.90
11838;DHT22;5978;51.020;6.764;2024-01-30T15:08:59;12.30;99.90
11838;DHT22;5978;51.020;6.764;2024-01-30T15:11:25;12.30;99.90
11838;DHT22;5978;51.020;6.764;2024-01-30T15:13:51;12.20;99.90
11838;DHT22;5978;51.020;6.764;2024-01-30T15:16:17;12.20;99.90
11838;DHT22;5978;51.020;6.764;2024-01-30T15:18:43;12.10;99.90
11838;DHT22;5978;51.020;6.764;2024-01-30T15:21:09;12.10;99.90
11838;DHT22;5978;51.020;6.764;2024-01-30T15:23:35;12.10;99.90
11838;DHT22;5978;51.020;6.764;2024-01-30T15:26:00;12.00;99.90
11838;DHT22;5978;51.020;6.764;2024-01-30T15:28:37;12.00;99.90
11838;DHT22;5978;51.020;6.764;2024-01-30T15:33:39;11.80;99.90
11838;DHT22;5978;51.020;6.764;2024-01-30T15:36:06;11.70;99.90
11838;DHT22;5978;51.020;6.764;2024-01-30T15:38:32;11.60;99.90
11838;DHT22;5978;51.020;6.764;2024-01-30T15:40:58;11.60;99.90
11838;DHT22;5978;51.020;6.764;2024-01-30T15:43:24;11.60;99.90
11838;DHT22;5978;51.020;6.764;2024-01-30T15:45:50;11.60;99.90
11838;DHT22;5978;51.020;6.764;2024-01-30T15:48:17;11.50;99.90
11838;DHT22;5978;51.020;6.764;2024-01-30T15:50:46;11.40;99.90
11838;DHT22;5978;51.020;6.764;2024-01-30T15:53:11;11.30;99.90
11838;DHT22;5978;51.020;6.764;2024-01-30T15:55:37;11.30;99.90
11838;DHT22;5978;51.020;6.764;2024-01-30T15:58:03;11.20;99.90
11838;DHT22;5978;51.020;6.764;2024-01-30T16:00:29;11.10;99.90